Time;durP1;ratioP1;P1;durP2;ratioP2;P2;SDS_P1;SDS_P2;PMS_P1;PMS_P2;Temp;Humidity;BMP_temperature;BMP_pressure;BME280_temperature;BME280_humidity;BME280_pressure;Samples;Min_cycle;Max_cycle;Signal;HPM_P1;HPM_P2
2023/09/25 00:00:18;;;;;;;1.08;0.80;;;24.20;81.00;;;;;;6277994;22;20184;-86
2023/09/25 00:02:49;;;;;;;0.30;0.30;;;24.20;80.70;;;;;;6304379;22;20467;-86
2023/09/25 00:05:19;;;;;;;1.38;0.80;;;24.20;80.40;;;;;;6305161;22;20260;-88
2023/09/25 00:07:48;;;;;;;1.05;1.05;;;24.20;81.00;;;;;;6305505;22;20157;-86
2023/09/25 00:10:17;;;;;;;1.55;0.68;;;24.20;80.60;;;;;;6305295;22;20243;-86
2023/09/25 00:12:46;;;;;;;1.08;0.60;;;24.20;81.10;;;;;;6304068;22;20165;-87
2023/09/25 00:15:15;;;;;;;1.38;0.85;;;24.10;81.90;;;;;;6305042;22;20255;-88
2023/09/25 00:17:44;;;;;;;0.43;0.43;;;24.10;81.40;;;;;;6305566;22;20223;-87
2023/09/25 00:20:14;;;;;;;1.85;0.93;;;24.10;81.70;;;;;;6305313;22;20242;-89
2023/09/25 00:22:44;;;;;;;3.13;1.00;;;24.10;81.50;;;;;;6306295;22;20197;-86
2023/09/25 00:25:13;;;;;;;0.40;0.40;;;24.10;82.20;;;;;;6307324;22;20161;-87
2023/09/25 00:27:42;;;;;;;0.75;0.65;;;24.10;82.40;;;;;;6305929;22;20196;-86
2023/09/25 00:30:13;;;;;;;1.05;0.95;;;24.10;82.30;;;;;;6278722;22;20196;-86
2023/09/25 00:32:42;;;;;;;0.50;0.47;;;24.10;82.40;;;;;;6304158;22;20708;-89
2023/09/25 00:35:11;;;;;;;1.23;1.13;;;24.10;83.00;;;;;;6305167;22;20517;-87
2023/09/25 00:37:40;;;;;;;1.27;0.80;;;24.10;82.80;;;;;;6303331;22;20292;-91
2023/09/25 00:40:13;;;;;;;0.80;0.70;;;24.00;83.10;;;;;;6307489;22;20537;-87
2023/09/25 00:42:42;;;;;;;0.65;0.60;;;24.10;83.30;;;;;;6305135;22;20169;-87
2023/09/25 00:45:11;;;;;;;1.02;0.95;;;24.00;84.00;;;;;;6305216;22;20165;-88
2023/09/25 00:47:42;;;;;;;1.10;1.00;;;24.00;84.10;;;;;;6303570;22;20199;-88
2023/09/25 00:50:11;;;;;;;3.72;0.77;;;24.00;84.30;;;;;;6305507;22;20153;-86
2023/09/25 00:52:43;;;;;;;1.35;1.13;;;24.00;84.30;;;;;;6305463;22;20240;-88
2023/09/25 00:55:15;;;;;;;2.40;1.65;;;24.00;84.50;;;;;;6306060;22;20157;-89
2023/09/25 00:57:48;;;;;;;1.25;0.93;;;24.00;84.70;;;;;;6305287;22;20185;-85
2023/09/25 01:00:18;;;;;;;1.63;0.73;;;23.90;84.80;;;;;;6305833;22;20194;-87
2023/09/25 01:02:47;;;;;;;2.17;1.48;;;23.90;85.00;;;;;;6304985;22;20173;-88
2023/09/25 01:05:17;;;;;;;0.40;0.40;;;23.90;84.70;;;;;;6305570;22;20168;-88
2023/09/25 01:07:46;;;;;;;0.40;0.30;;;23.90;84.70;;;;;;6304878;22;20562;-91
2023/09/25 01:10:18;;;;;;;6.13;1.50;;;23.90;84.60;;;;;;6278252;22;20244;-87
2023/09/25 01:12:48;;;;;;;1.05;0.95;;;23.90;84.90;;;;;;6304961;22;20549;-87
2023/09/25 01:15:17;;;;;;;0.98;0.50;;;23.90;85.20;;;;;;6303851;22;20172;-88
2023/09/25 01:17:46;;;;;;;1.30;0.93;;;23.90;85.00;;;;;;6305087;22;20170;-85
2023/09/25 01:20:17;;;;;;;3.22;1.25;;;23.90;85.20;;;;;;6306091;22;20545;-87
2023/09/25 01:22:49;;;;;;;1.02;0.90;;;23.90;84.70;;;;;;6306139;22;20157;-87
2023/09/25 01:25:19;;;;;;;1.13;0.98;;;23.80;84.60;;;;;;6278843;22;20475;-87
2023/09/25 01:27:49;;;;;;;1.17;1.08;;;23.80;84.90;;;;;;6306008;22;20185;-87
2023/09/25 01:30:20;;;;;;;0.98;0.95;;;23.80;85.50;;;;;;6307189;22;20560;-86
2023/09/25 01:32:51;;;;;;;1.25;1.15;;;23.80;85.20;;;;;;6309461;22;20239;-87
2023/09/25 01:35:23;;;;;;;1.02;0.93;;;23.70;85.40;;;;;;6319528;22;20201;-87
2023/09/25 01:37:57;;;;;;;2.25;1.85;;;23.70;85.50;;;;;;6327916;22;20168;-88
2023/09/25 01:40:26;;;;;;;0.85;0.82;;;23.70;85.80;;;;;;6327219;22;20161;-88
2023/09/25 01:42:54;;;;;;;1.13;0.93;;;23.70;85.50;;;;;;6327635;22;20176;-87
2023/09/25 01:45:24;;;;;;;4.38;1.23;;;23.70;85.50;;;;;;6325652;22;20185;-86
2023/09/25 01:47:54;;;;;;;1.35;1.25;;;23.70;85.90;;;;;;6324443;22;20246;-86
2023/09/25 01:50:24;;;;;;;2.33;1.08;;;23.70;85.80;;;;;;6325434;22;20224;-88
2023/09/25 01:52:56;;;;;;;4.60;2.25;;;23.70;85.70;;;;;;6318976;22;20221;-89
2023/09/25 01:55:27;;;;;;;0.90;0.85;;;23.60;86.40;;;;;;6322084;22;20487;-89
2023/09/25 01:57:56;;;;;;;0.52;0.52;;;23.60;86.50;;;;;;6324103;22;20160;-88
2023/09/25 02:00:24;;;;;;;1.42;1.10;;;23.60;86.00;;;;;;6307597;22;20179;-87
2023/09/25 02:02:54;;;;;;;1.80;1.35;;;23.60;86.10;;;;;;6306803;22;20198;-86
2023/09/25 02:05:23;;;;;;;1.95;1.17;;;23.50;86.50;;;;;;6280982;22;20231;-90
2023/09/25 02:07:54;;;;;;;2.05;0.93;;;23.50;86.60;;;;;;6306839;22;20566;-88
2023/09/25 02:10:22;;;;;;;1.73;1.38;;;23.50;86.30;;;;;;6306457;22;20534;-86
2023/09/25 02:12:51;;;;;;;0.95;0.75;;;23.50;86.60;;;;;;6306984;22;20165;-88
2023/09/25 02:15:20;;;;;;;1.42;0.73;;;23.50;86.50;;;;;;6307761;22;20622;-87
2023/09/25 02:17:49;;;;;;;1.20;1.00;;;23.50;86.50;;;;;;6306705;22;20220;-86
2023/09/25 02:20:19;;;;;;;1.67;1.02;;;23.50;86.60;;;;;;6307705;22;20177;-88
2023/09/25 02:22:48;;;;;;;1.27;1.08;;;23.50;86.50;;;;;;6306413;22;20483;-89
2023/09/25 02:25:20;;;;;;;1.75;1.00;;;23.40;87.00;;;;;;6306897;22;20642;-86
2023/09/25 02:27:49;;;;;;;0.93;0.85;;;23.40;86.90;;;;;;6306560;22;20181;-89
2023/09/25 02:30:17;;;;;;;2.85;1.58;;;23.30;87.20;;;;;;6305290;22;20240;-88
2023/09/25 02:32:47;;;;;;;1.08;0.88;;;23.30;86.90;;;;;;6278222;22;20224;-90
2023/09/25 02:35:16;;;;;;;1.05;0.90;;;23.30;87.20;;;;;;6279836;22;20240;-91
2023/09/25 02:37:45;;;;;;;1.15;0.57;;;23.30;87.20;;;;;;6305121;22;20593;-88
2023/09/25 02:40:14;;;;;;;0.90;0.80;;;23.30;86.90;;;;;;6306621;22;20533;-87
2023/09/25 02:42:45;;;;;;;2.15;1.63;;;23.30;87.40;;;;;;6305846;22;20207;-88
2023/09/25 02:45:16;;;;;;;3.13;1.77;;;23.30;87.30;;;;;;6279586;22;20614;-86
2023/09/25 02:47:45;;;;;;;3.20;1.27;;;23.30;87.30;;;;;;6304737;22;20541;-89
2023/09/25 02:50:15;;;;;;;2.70;1.73;;;23.20;87.40;;;;;;6306431;22;20208;-89
2023/09/25 02:52:44;;;;;;;1.48;1.33;;;23.20;87.50;;;;;;6305319;22;20165;-89
2023/09/25 02:55:14;;;;;;;1.60;1.45;;;23.20;87.50;;;;;;6306131;22;20169;-89
2023/09/25 02:57:45;;;;;;;4.43;0.75;;;23.20;87.20;;;;;;6307357;22;20165;-87
2023/09/25 03:00:15;;;;;;;0.57;0.57;;;23.20;87.00;;;;;;6278858;22;20184;-86
2023/09/25 03:02:44;;;;;;;3.45;2.05;;;23.20;86.70;;;;;;6279192;22;20169;-88
2023/09/25 03:05:14;;;;;;;1.52;0.80;;;23.20;87.00;;;;;;6305277;22;20553;-86
2023/09/25 03:07:42;;;;;;;4.72;1.20;;;23.20;86.90;;;;;;6305512;22;20521;-88
2023/09/25 03:10:11;;;;;;;4.53;2.75;;;23.20;86.90;;;;;;6305322;22;20624;-87
2023/09/25 03:12:40;;;;;;;1.30;1.20;;;23.20;87.20;;;;;;6304663;22;20546;-88
2023/09/25 03:15:11;;;;;;;4.68;1.40;;;23.20;86.90;;;;;;6306599;22;20627;-87
2023/09/25 03:17:40;;;;;;;1.60;1.05;;;23.20;86.70;;;;;;6306563;22;20591;-86
2023/09/25 03:20:14;;;;;;;1.65;0.88;;;23.10;87.30;;;;;;6305819;22;20168;-90
2023/09/25 03:22:45;;;;;;;0.38;0.38;;;23.10;87.20;;;;;;6305854;22;20630;-88
2023/09/25 03:25:14;;;;;;;2.25;1.13;;;23.10;87.20;;;;;;6306355;22;20165;-88
2023/09/25 03:27:44;;;;;;;1.23;1.02;;;23.10;87.60;;;;;;6305785;22;20193;-88
2023/09/25 03:30:15;;;;;;;1.20;1.15;;;23.10;87.30;;;;;;6305303;22;20176;-89
2023/09/25 03:32:44;;;;;;;1.88;1.42;;;23.00;87.50;;;;;;6303567;22;20531;-84
2023/09/25 03:35:13;;;;;;;0.73;0.73;;;23.00;87.70;;;;;;6306214;22;20241;-91
2023/09/25 03:37:42;;;;;;;1.15;1.00;;;23.00;87.70;;;;;;6304634;22;20173;-87
2023/09/25 03:40:12;;;;;;;0.73;0.70;;;23.00;87.70;;;;;;6303929;22;20506;-88
2023/09/25 03:42:42;;;;;;;1.45;1.35;;;23.00;87.60;;;;;;6306301;22;20502;-86
2023/09/25 03:45:11;;;;;;;0.90;0.70;;;23.00;87.60;;;;;;6253708;22;20664;-87
2023/09/25 03:47:42;;;;;;;1.15;1.05;;;23.00;87.60;;;;;;6305048;22;20204;-91
2023/09/25 03:50:12;;;;;;;1.33;1.10;;;23.00;87.50;;;;;;6279704;22;20205;-88
2023/09/25 03:52:42;;;;;;;4.38;0.80;;;23.00;87.30;;;;;;6302929;22;20244;-87
2023/09/25 03:55:11;;;;;;;2.50;1.77;;;23.00;87.30;;;;;;6305521;22;20553;-90
2023/09/25 03:57:40;;;;;;;2.60;1.73;;;22.90;87.00;;;;;;6304895;22;20165;-88
2023/09/25 04:00:10;;;;;;;1.25;0.95;;;22.90;87.50;;;;;;6305126;22;20173;-89
2023/09/25 04:02:39;;;;;;;1.77;1.63;;;22.90;87.40;;;;;;6304315;22;20236;-89
2023/09/25 04:05:12;;;;;;;1.27;1.17;;;22.90;87.40;;;;;;6304985;22;20167;-86
2023/09/25 04:07:40;;;;;;;1.48;1.25;;;22.90;87.50;;;;;;6304631;22;20302;-88
2023/09/25 04:10:09;;;;;;;0.63;0.63;;;22.90;87.60;;;;;;6304638;22;20181;-87
2023/09/25 04:12:39;;;;;;;0.65;0.65;;;22.90;87.40;;;;;;6304982;22;20161;-88
2023/09/25 04:15:13;;;;;;;10.95;0.85;;;22.90;87.30;;;;;;6304576;22;20189;-90
2023/09/25 04:17:42;;;;;;;2.83;1.25;;;22.90;87.10;;;;;;6304106;22;20154;-88
2023/09/25 04:20:17;;;;;;;0.80;0.70;;;22.90;87.20;;;;;;6304721;22;20224;-91
2023/09/25 04:22:47;;;;;;;0.82;0.82;;;22.90;87.10;;;;;;6304743;22;20160;-88
2023/09/25 04:25:18;;;;;;;2.35;1.30;;;22.90;87.00;;;;;;6305367;22;20169;-87
2023/09/25 04:27:50;;;;;;;1.83;1.27;;;22.90;87.00;;;;;;6304095;22;20268;-89
2023/09/25 04:30:19;;;;;;;1.63;1.45;;;22.90;87.00;;;;;;6278223;22;20169;-88
2023/09/25 04:32:53;;;;;;;1.00;0.90;;;22.90;86.90;;;;;;6304898;22;20196;-89
2023/09/25 04:35:25;;;;;;;1.40;1.25;;;22.90;86.90;;;;;;6305852;22;20207;-86
2023/09/25 04:37:54;;;;;;;0.60;0.60;;;22.90;86.90;;;;;;6302866;22;20165;-84
2023/09/25 04:40:30;;;;;;;0.93;0.90;;;23.00;86.90;;;;;;6304649;22;20165;-87
2023/09/25 04:43:00;;;;;;;1.77;1.02;;;23.00;86.90;;;;;;6305617;22;20629;-87
2023/09/25 04:45:29;;;;;;;0.82;0.80;;;23.00;86.70;;;;;;6304613;22;20169;-84
2023/09/25 04:47:59;;;;;;;1.27;0.77;;;23.00;86.70;;;;;;6303473;22;20230;-85
2023/09/25 04:50:29;;;;;;;0.98;0.75;;;23.00;86.60;;;;;;6305814;22;20606;-89
2023/09/25 04:52:58;;;;;;;1.42;0.75;;;23.00;86.50;;;;;;6301388;22;20188;-86
2023/09/25 04:55:27;;;;;;;4.90;2.47;;;23.10;86.60;;;;;;6304840;22;20175;-89
2023/09/25 04:58:31;;;;;;;2.20;1.08;;;23.10;86.60;;;;;;6276921;22;20169;-85
2023/09/25 05:01:01;;;;;;;1.17;1.08;;;23.10;86.50;;;;;;6305011;22;20212;-85
2023/09/25 05:03:30;;;;;;;1.55;1.25;;;23.10;86.40;;;;;;6277722;22;20172;-85
2023/09/25 05:06:00;;;;;;;1.13;1.02;;;23.10;86.40;;;;;;6308079;22;20161;-87
2023/09/25 05:08:29;;;;;;;1.20;1.10;;;23.20;86.30;;;;;;6304828;22;20177;-85
2023/09/25 05:10:59;;;;;;;0.50;0.50;;;23.20;86.10;;;;;;6305831;22;20177;-86
2023/09/25 05:13:28;;;;;;;1.42;1.20;;;23.20;86.00;;;;;;6305023;22;20721;-88
2023/09/25 05:15:59;;;;;;;1.00;0.75;;;23.30;85.90;;;;;;6280246;22;20171;-87
2023/09/25 05:18:29;;;;;;;2.40;1.52;;;23.30;85.80;;;;;;6304276;22;20637;-86
2023/09/25 05:20:59;;;;;;;0.82;0.60;;;23.30;85.60;;;;;;6307139;22;20252;-86
2023/09/25 05:23:28;;;;;;;2.42;1.27;;;23.30;85.50;;;;;;6306905;22;20244;-86
2023/09/25 05:25:59;;;;;;;1.02;0.80;;;23.40;85.50;;;;;;6307405;22;20538;-88
2023/09/25 05:28:28;;;;;;;2.92;0.82;;;23.40;85.50;;;;;;6305352;22;20219;-86
2023/09/25 05:30:58;;;;;;;1.55;1.45;;;23.40;85.40;;;;;;6304237;22;20221;-88
2023/09/25 05:33:28;;;;;;;1.75;1.05;;;23.40;85.20;;;;;;6304143;22;20196;-88
2023/09/25 05:46:07;;;;;;;2.47;1.10;;;23.70;84.70;;;;;;6239893;23;20598;-87
2023/09/25 05:53:58;;;;;;;4.03;1.42;;;23.80;84.10;;;;;;6238902;22;20216;-86
2023/09/25 05:56:33;;;;;;;1.50;0.68;;;23.80;83.80;;;;;;6228936;22;20233;-84
2023/09/25 05:59:48;;;;;;;0.80;0.80;;;23.90;83.80;;;;;;6211424;23;20310;-87
2023/09/25 06:02:40;;;;;;;1.30;0.98;;;23.90;83.60;;;;;;6181619;23;20175;-85
2023/09/25 06:09:08;;;;;;;0.57;0.57;;;24.00;83.20;;;;;;6034098;23;20203;-85
2023/09/25 06:14:38;;;;;;;2.90;0.75;;;24.00;82.30;;;;;;6184462;22;20230;-83
2023/09/25 06:17:10;;;;;;;1.98;1.45;;;24.10;82.40;;;;;;6180706;23;20160;-87
2023/09/25 06:19:39;;;;;;;0.88;0.55;;;24.20;82.00;;;;;;6184339;23;20553;-86
2023/09/25 06:22:08;;;;;;;0.68;0.68;;;24.20;81.90;;;;;;6180509;23;20176;-84
2023/09/25 06:24:38;;;;;;;1.55;1.20;;;24.30;81.90;;;;;;6184908;23;20174;-86
2023/09/25 06:27:08;;;;;;;0.85;0.63;;;24.30;81.80;;;;;;6181882;23;20172;-83
2023/09/25 06:29:37;;;;;;;1.60;1.10;;;24.50;81.90;;;;;;6182378;23;20202;-85
2023/09/25 06:32:06;;;;;;;0.75;0.60;;;24.50;81.60;;;;;;6183989;23;20191;-87
2023/09/25 06:34:34;;;;;;;0.65;0.55;;;24.50;81.30;;;;;;6182028;23;20490;-86
2023/09/25 06:37:05;;;;;;;1.63;0.77;;;24.60;81.10;;;;;;6154668;23;20385;-86
2023/09/25 06:39:34;;;;;;;1.75;1.02;;;24.60;80.10;;;;;;6183591;23;20164;-86
2023/09/25 06:42:04;;;;;;;1.70;1.02;;;24.70;79.90;;;;;;6157049;23;20174;-85
2023/09/25 06:44:33;;;;;;;1.02;0.60;;;24.80;80.00;;;;;;6183788;23;20175;-85
2023/09/25 06:47:02;;;;;;;0.60;0.50;;;24.80;79.90;;;;;;6182400;23;20389;-86
2023/09/25 06:49:30;;;;;;;0.88;0.70;;;25.00;79.80;;;;;;6180814;23;20675;-84
2023/09/25 06:51:59;;;;;;;1.23;1.13;;;25.00;79.80;;;;;;6182757;23;20175;-86
2023/09/25 06:54:28;;;;;;;1.90;1.00;;;25.00;79.40;;;;;;6183170;23;20180;-85
2023/09/25 06:56:56;;;;;;;0.85;0.80;;;25.10;78.60;;;;;;6182785;23;20244;-83
2023/09/25 06:59:27;;;;;;;1.00;0.93;;;25.20;78.60;;;;;;6184398;23;20182;-83
2023/09/25 07:01:56;;;;;;;0.50;0.50;;;25.20;78.40;;;;;;6182536;23;20156;-85
2023/09/25 07:04:25;;;;;;;1.95;1.20;;;25.30;77.60;;;;;;6182328;23;20210;-83
2023/09/25 07:06:56;;;;;;;0.50;0.50;;;25.30;77.10;;;;;;6183367;23;20160;-84
2023/09/25 07:09:24;;;;;;;1.35;0.73;;;25.40;76.50;;;;;;6184307;23;20203;-84
2023/09/25 07:11:53;;;;;;;1.80;1.00;;;25.40;76.40;;;;;;6181612;23;20172;-84
2023/09/25 07:14:22;;;;;;;2.05;1.08;;;25.40;75.50;;;;;;6236820;23;20190;-85
2023/09/25 07:16:52;;;;;;;1.17;0.98;;;25.50;75.50;;;;;;6242371;23;20173;-85
2023/09/25 07:19:21;;;;;;;0.93;0.82;;;25.50;75.20;;;;;;6242708;23;20163;-83
2023/09/25 07:21:51;;;;;;;1.63;0.60;;;25.60;73.50;;;;;;6241996;23;20166;-82
2023/09/25 07:24:19;;;;;;;1.30;0.93;;;25.60;73.90;;;;;;6245689;23;20612;-81
2023/09/25 07:26:48;;;;;;;0.68;0.68;;;25.70;73.60;;;;;;6216413;23;20881;-84
2023/09/25 07:29:17;;;;;;;0.55;0.55;;;25.80;73.70;;;;;;6243020;23;20240;-82
2023/09/25 07:32:07;;;;;;;1.48;1.15;;;25.80;73.00;;;;;;6242162;23;20220;-84
2023/09/25 07:34:36;;;;;;;5.80;1.13;;;25.90;72.00;;;;;;6243069;23;20244;-84
2023/09/25 07:37:05;;;;;;;1.05;0.68;;;25.90;71.30;;;;;;6243742;23;20501;-84
2023/09/25 07:39:34;;;;;;;0.93;0.70;;;25.90;70.20;;;;;;6243895;23;20225;-84
2023/09/25 07:42:03;;;;;;;1.75;0.93;;;26.00;70.20;;;;;;6241516;23;20170;-86
2023/09/25 07:44:33;;;;;;;0.35;0.35;;;26.10;70.90;;;;;;6216978;23;20167;-82
2023/09/25 07:47:06;;;;;;;2.10;1.15;;;26.10;71.10;;;;;;6240653;23;20174;-85
2023/09/25 07:49:40;;;;;;;1.35;1.02;;;26.10;70.50;;;;;;6243916;23;20186;-83
2023/09/25 07:52:15;;;;;;;0.65;0.45;;;26.20;70.50;;;;;;6241876;23;20228;-83
2023/09/25 07:54:45;;;;;;;0.98;0.68;;;26.30;70.30;;;;;;6242014;23;20169;-83
2023/09/25 07:57:15;;;;;;;0.95;0.77;;;26.40;69.90;;;;;;6242902;23;20550;-83
2023/09/25 07:59:44;;;;;;;0.32;0.30;;;26.40;69.40;;;;;;6243504;23;20192;-84
2023/09/25 08:02:16;;;;;;;1.15;0.90;;;26.50;69.70;;;;;;6241841;23;20656;-87
2023/09/25 08:04:47;;;;;;;1.33;0.55;;;26.60;69.40;;;;;;6239050;23;20623;-82
2023/09/25 08:07:16;;;;;;;1.08;0.43;;;26.60;68.10;;;;;;6241031;23;20208;-83
2023/09/25 08:09:44;;;;;;;14.55;0.85;;;26.60;66.70;;;;;;6241752;23;20216;-83
2023/09/25 08:12:13;;;;;;;0.50;0.43;;;26.70;67.20;;;;;;6242866;23;20678;-83
2023/09/25 08:14:41;;;;;;;2.28;1.45;;;26.80;67.40;;;;;;6244204;23;20170;-88
2023/09/25 08:17:10;;;;;;;2.05;1.00;;;26.80;67.20;;;;;;6242646;23;20242;-86
2023/09/25 08:19:39;;;;;;;1.08;0.55;;;26.90;67.20;;;;;;6243530;23;20628;-87
2023/09/25 08:22:10;;;;;;;3.83;0.50;;;26.90;66.60;;;;;;6240204;23;20506;-85
2023/09/25 08:24:38;;;;;;;1.02;0.82;;;27.00;65.80;;;;;;6242826;23;20642;-88
2023/09/25 08:27:08;;;;;;;1.25;1.08;;;27.00;64.20;;;;;;6240295;23;20246;-87
2023/09/25 08:29:36;;;;;;;0.52;0.50;;;27.10;64.90;;;;;;6244214;23;20519;-86
2023/09/25 08:32:04;;;;;;;2.05;0.95;;;27.10;64.90;;;;;;6242715;23;20544;-86
2023/09/25 08:34:33;;;;;;;0.47;0.47;;;27.20;64.70;;;;;;6243752;23;20178;-86
2023/09/25 08:37:02;;;;;;;0.90;0.50;;;27.20;63.60;;;;;;6240608;23;20587;-83
2023/09/25 08:39:32;;;;;;;0.40;0.40;;;27.20;63.30;;;;;;6240088;23;20170;-86
2023/09/25 08:42:04;;;;;;;0.50;0.50;;;27.20;63.50;;;;;;6242583;23;20161;-83
2023/09/25 08:44:32;;;;;;;3.42;0.70;;;27.20;62.10;;;;;;6242976;23;20546;-84
2023/09/25 08:47:01;;;;;;;0.52;0.40;;;27.20;62.60;;;;;;6241440;23;20177;-85
2023/09/25 08:49:32;;;;;;;0.90;0.73;;;27.20;62.10;;;;;;6243691;23;20205;-83
2023/09/25 08:52:01;;;;;;;0.30;0.30;;;27.30;62.10;;;;;;6243308;23;20213;-84
2023/09/25 08:54:31;;;;;;;0.75;0.47;;;27.30;61.60;;;;;;6244669;23;20174;-87
2023/09/25 08:57:01;;;;;;;1.05;0.82;;;27.30;61.50;;;;;;6242395;23;20250;-87
2023/09/25 08:59:32;;;;;;;2.55;1.05;;;27.40;61.80;;;;;;6217938;23;20647;-86
2023/09/25 09:02:00;;;;;;;0.77;0.70;;;27.40;61.20;;;;;;6240845;23;20635;-84
2023/09/25 09:04:29;;;;;;;2.67;0.63;;;27.50;61.70;;;;;;6242859;23;20620;-83
2023/09/25 09:06:57;;;;;;;0.30;0.30;;;27.50;62.00;;;;;;6241746;23;20170;-83
2023/09/25 09:09:26;;;;;;;0.70;0.70;;;27.60;61.80;;;;;;6217802;23;20556;-84
2023/09/25 09:11:57;;;;;;;1.30;0.60;;;27.60;60.90;;;;;;6241311;23;20277;-84
2023/09/25 09:14:36;;;;;;;0.60;0.60;;;27.70;60.40;;;;;;6242922;23;20240;-85
2023/09/25 09:17:05;;;;;;;1.55;0.68;;;27.70;59.90;;;;;;6242844;23;20198;-83
2023/09/25 09:19:36;;;;;;;1.17;1.08;;;27.70;59.50;;;;;;6243493;23;20166;-85
2023/09/25 09:22:07;;;;;;;1.13;0.73;;;27.80;59.70;;;;;;6239795;23;20166;-82
2023/09/25 09:24:38;;;;;;;1.35;1.20;;;27.80;59.40;;;;;;6242524;23;20208;-83
2023/09/25 09:27:09;;;;;;;0.60;0.52;;;27.90;59.50;;;;;;6242917;23;20167;-81
2023/09/25 09:29:38;;;;;;;0.73;0.50;;;27.90;58.90;;;;;;6242286;23;20240;-85
2023/09/25 09:32:08;;;;;;;0.60;0.60;;;28.00;59.40;;;;;;6243839;23;20199;-83
2023/09/25 09:34:38;;;;;;;0.50;0.50;;;28.10;58.70;;;;;;6242791;23;20181;-85
2023/09/25 09:37:08;;;;;;;1.20;0.65;;;28.10;57.90;;;;;;6242622;23;20612;-86
2023/09/25 09:39:37;;;;;;;3.75;1.15;;;28.10;58.10;;;;;;6241897;23;20185;-84
2023/09/25 09:42:09;;;;;;;0.75;0.75;;;28.20;58.10;;;;;;6242223;23;20182;-86
2023/09/25 09:44:37;;;;;;;0.70;0.70;;;28.20;57.30;;;;;;6241141;23;20596;-84
2023/09/25 09:47:07;;;;;;;1.08;0.50;;;28.20;56.80;;;;;;6242306;23;20180;-87
2023/09/25 09:49:37;;;;;;;2.05;1.05;;;28.30;57.00;;;;;;6242704;23;20177;-84
2023/09/25 09:52:07;;;;;;;1.40;1.00;;;28.30;56.60;;;;;;6245831;23;20190;-88
2023/09/25 09:54:40;;;;;;;1.98;1.10;;;28.30;56.60;;;;;;6246569;23;20174;-84
2023/09/25 09:57:12;;;;;;;8.60;0.80;;;28.40;56.10;;;;;;6244961;23;20155;-84
2023/09/25 09:59:40;;;;;;;0.80;0.68;;;28.40;55.60;;;;;;6245556;23;20155;-86
2023/09/25 10:02:09;;;;;;;0.82;0.82;;;28.40;55.40;;;;;;6247945;23;20181;-85
2023/09/25 10:04:38;;;;;;;0.55;0.55;;;28.50;55.80;;;;;;6258411;23;20158;-85
2023/09/25 10:07:09;;;;;;;0.30;0.30;;;28.50;55.30;;;;;;6266036;23;20226;-84
2023/09/25 10:09:37;;;;;;;0.55;0.50;;;28.60;55.50;;;;;;6263612;23;20274;-86
2023/09/25 10:12:06;;;;;;;1.08;0.88;;;28.60;55.40;;;;;;6264762;23;20584;-86
2023/09/25 10:14:43;;;;;;;4.10;1.80;;;28.70;56.00;;;;;;6263750;23;20195;-84
2023/09/25 10:17:12;;;;;;;0.30;0.30;;;28.70;56.00;;;;;;6261142;23;20216;-87
2023/09/25 10:19:49;;;;;;;1.05;0.60;;;28.80;55.40;;;;;;6254528;23;20170;-85
2023/09/25 10:22:20;;;;;;;8.48;0.85;;;28.80;55.10;;;;;;6250653;23;20225;-84
2023/09/25 10:24:54;;;;;;;1.13;0.60;;;28.80;54.40;;;;;;6261206;23;20162;-88
2023/09/25 10:27:27;;;;;;;1.30;0.68;;;28.90;54.40;;;;;;6260924;23;20232;-87
2023/09/25 10:30:14;;;;;;;0.30;0.30;;;28.90;54.40;;;;;;6220419;23;20158;-86
2023/09/25 10:32:50;;;;;;;1.88;0.50;;;29.00;54.40;;;;;;6244617;23;20409;-85
2023/09/25 10:35:42;;;;;;;0.55;0.32;;;29.00;54.50;;;;;;6245287;23;20162;-83
2023/09/25 10:38:17;;;;;;;0.77;0.75;;;29.10;54.00;;;;;;6243123;23;20158;-89
2023/09/25 10:41:01;;;;;;;0.25;0.25;;;29.10;53.50;;;;;;6243006;23;20612;-86
2023/09/25 10:43:31;;;;;;;0.52;0.45;;;29.10;52.80;;;;;;6242264;23;20672;-84
2023/09/25 10:46:02;;;;;;;0.57;0.50;;;29.20;52.00;;;;;;6215590;23;20167;-84
2023/09/25 10:48:34;;;;;;;3.65;0.50;;;29.20;52.20;;;;;;6243966;23;20178;-85
2023/09/25 10:51:03;;;;;;;0.70;0.70;;;29.20;52.70;;;;;;6243745;23;20209;-87
2023/09/25 10:53:32;;;;;;;0.65;0.40;;;29.30;52.60;;;;;;6242415;23;20501;-87
2023/09/25 10:56:01;;;;;;;0.80;0.77;;;29.30;52.90;;;;;;6245466;23;20174;-85
2023/09/25 10:58:30;;;;;;;0.82;0.40;;;29.30;51.90;;;;;;6244634;23;20206;-89
2023/09/25 11:01:02;;;;;;;0.55;0.40;;;29.40;50.50;;;;;;6241597;23;20174;-86
2023/09/25 11:03:37;;;;;;;1.33;0.60;;;29.40;51.00;;;;;;6242979;23;20491;-87
2023/09/25 11:06:07;;;;;;;0.40;0.30;;;29.40;51.00;;;;;;6244116;23;20628;-85
2023/09/25 11:08:36;;;;;;;1.50;0.68;;;29.40;51.10;;;;;;6242887;23;20166;-84
2023/09/25 11:11:04;;;;;;;0.60;0.60;;;29.50;51.20;;;;;;6242584;23;20640;-88
2023/09/25 11:13:33;;;;;;;1.10;0.52;;;29.40;50.50;;;;;;6242688;23;20194;-88
2023/09/25 11:16:03;;;;;;;0.35;0.35;;;29.50;50.70;;;;;;6244113;23;20178;-86
2023/09/25 11:18:31;;;;;;;0.47;0.47;;;29.60;51.00;;;;;;6243984;23;20159;-90
2023/09/25 11:21:01;;;;;;;0.35;0.35;;;29.60;51.10;;;;;;6246719;23;20181;-93
2023/09/25 11:23:33;;;;;;;18.08;1.23;;;29.60;50.30;;;;;;6245564;23;20224;-90
2023/09/25 11:26:04;;;;;;;2.58;1.02;;;29.70;50.60;;;;;;6246028;23;20245;-90
2023/09/25 11:28:33;;;;;;;0.55;0.55;;;29.70;50.70;;;;;;6244701;23;20490;-86
2023/09/25 11:31:04;;;;;;;0.85;0.57;;;29.70;51.10;;;;;;6243487;23;20177;-89
2023/09/25 11:33:34;;;;;;;0.30;0.30;;;29.70;51.10;;;;;;6243802;23;20178;-86
2023/09/25 11:36:11;;;;;;;0.85;0.73;;;29.80;50.90;;;;;;6243764;23;20170;-86
2023/09/25 11:38:39;;;;;;;0.77;0.50;;;29.80;51.50;;;;;;6240819;23;20189;-84
2023/09/25 11:41:10;;;;;;;1.10;0.77;;;29.70;50.00;;;;;;6243155;23;20685;-89
2023/09/25 11:43:38;;;;;;;0.40;0.40;;;29.80;50.50;;;;;;6243427;23;20174;-89
2023/09/25 11:46:08;;;;;;;2.72;1.45;;;29.80;50.60;;;;;;6244240;23;20249;-86
2023/09/25 11:48:38;;;;;;;0.35;0.35;;;29.80;51.00;;;;;;6242922;23;20191;-85
2023/09/25 11:51:07;;;;;;;1.17;0.40;;;29.80;51.90;;;;;;6243613;23;20167;-85
2023/09/25 11:53:36;;;;;;;0.50;0.50;;;29.80;51.20;;;;;;6243596;23;20174;-86
2023/09/25 11:56:05;;;;;;;0.52;0.50;;;29.80;49.70;;;;;;6213473;23;20249;-85
2023/09/25 11:58:33;;;;;;;0.93;0.88;;;29.80;50.20;;;;;;6244831;23;20167;-85
2023/09/25 12:01:03;;;;;;;0.95;0.43;;;29.80;50.10;;;;;;6241227;23;20170;-84
2023/09/25 12:03:38;;;;;;;0.40;0.40;;;29.80;50.20;;;;;;6242776;23;20505;-85
2023/09/25 12:06:07;;;;;;;0.60;0.50;;;29.90;50.70;;;;;;6243505;23;20159;-86
2023/09/25 12:08:38;;;;;;;1.00;0.65;;;29.90;50.00;;;;;;6243198;23;20177;-84
2023/09/25 12:11:06;;;;;;;0.63;0.63;;;29.90;50.20;;;;;;6242819;23;20209;-84
2023/09/25 12:13:35;;;;;;;3.17;1.40;;;29.90;50.20;;;;;;6242909;23;20255;-85
2023/09/25 12:16:03;;;;;;;0.30;0.30;;;29.90;49.60;;;;;;6243607;23;20170;-85
2023/09/25 12:18:33;;;;;;;0.75;0.63;;;29.90;49.00;;;;;;6243713;23;20182;-86
2023/09/25 12:21:02;;;;;;;0.77;0.70;;;29.90;48.80;;;;;;6242804;23;20616;-92
2023/09/25 12:23:31;;;;;;;0.95;0.45;;;29.90;49.00;;;;;;6244892;23;20227;-89
2023/09/25 12:26:00;;;;;;;1.25;0.90;;;29.90;49.50;;;;;;6242821;23;20663;-84
2023/09/25 12:28:29;;;;;;;0.40;0.40;;;29.90;49.60;;;;;;6242768;23;20174;-83
2023/09/25 12:30:57;;;;;;;3.10;0.73;;;29.90;49.20;;;;;;6245837;23;20171;-84
2023/09/25 12:33:26;;;;;;;0.40;0.40;;;30.00;47.90;;;;;;6242657;23;20194;-83
2023/09/25 12:35:56;;;;;;;0.47;0.47;;;30.00;47.40;;;;;;6242506;23;20170;-83
2023/09/25 12:38:30;;;;;;;1.20;1.10;;;30.10;47.40;;;;;;6244902;23;20166;-82
2023/09/25 12:40:58;;;;;;;0.30;0.30;;;30.10;46.80;;;;;;6246923;23;20174;-84
2023/09/25 12:43:26;;;;;;;1.23;0.68;;;30.10;44.80;;;;;;6242532;23;20168;-85
2023/09/25 12:45:55;;;;;;;15.25;2.13;;;30.20;45.60;;;;;;6243069;23;20178;-82
2023/09/25 12:48:25;;;;;;;0.57;0.40;;;30.10;45.50;;;;;;6242212;23;20181;-84
2023/09/25 12:50:55;;;;;;;0.68;0.50;;;30.20;45.80;;;;;;6243335;23;20171;-84
2023/09/25 12:53:24;;;;;;;2.92;0.60;;;30.20;46.00;;;;;;6240223;23;20190;-83
2023/09/25 12:55:55;;;;;;;0.50;0.35;;;30.20;46.30;;;;;;6239996;23;20236;-87
2023/09/25 12:58:23;;;;;;;0.75;0.75;;;30.20;45.80;;;;;;6242907;23;20170;-85
2023/09/25 13:00:56;;;;;;;0.43;0.38;;;30.30;45.70;;;;;;6216531;23;20158;-88
2023/09/25 13:03:25;;;;;;;0.30;0.30;;;30.30;45.40;;;;;;6237687;23;20500;-85
2023/09/25 13:05:55;;;;;;;2.92;0.40;;;30.30;44.50;;;;;;6241137;23;20650;-82
2023/09/25 13:08:26;;;;;;;3.95;1.42;;;30.30;45.00;;;;;;6242841;23;20201;-83
2023/09/25 13:10:55;;;;;;;4.32;1.20;;;30.40;45.00;;;;;;6241373;23;20182;-82
2023/09/25 13:13:24;;;;;;;0.57;0.32;;;30.30;44.00;;;;;;6240916;23;20229;-81
2023/09/25 13:15:52;;;;;;;1.80;0.90;;;30.30;44.60;;;;;;6214809;23;20170;-82
2023/09/25 13:18:21;;;;;;;0.30;0.30;;;30.40;45.00;;;;;;6241037;23;20173;-84
2023/09/25 13:20:50;;;;;;;0.77;0.50;;;30.40;44.30;;;;;;6240055;23;20177;-84
2023/09/25 13:23:20;;;;;;;0.32;0.30;;;30.50;44.40;;;;;;6238231;23;20178;-84